createdAt,value
2022-11-25T00:00:42.194Z,96204.19
2022-11-25T00:03:10.038Z,96203.09
2022-11-25T00:05:37.850Z,96205.75
2022-11-25T00:08:05.975Z,96206.25
2022-11-25T00:10:33.763Z,96208.38
2022-11-25T00:13:01.579Z,96206.78
2022-11-25T00:15:30.995Z,96216.84
2022-11-25T00:17:58.780Z,96203.81
2022-11-25T00:20:26.561Z,96209.91
2022-11-25T00:22:54.314Z,96207.53
2022-11-25T00:25:22.037Z,96206.72
2022-11-25T00:27:53.362Z,96197.13
2022-11-25T00:30:21.308Z,96202.44
2022-11-25T00:32:50.470Z,96198.19
2022-11-25T00:35:18.257Z,96195.53
2022-11-25T00:37:46.227Z,96199.78
2022-11-25T00:40:15.071Z,96195.53
2022-11-25T00:43:00.247Z,96196.06
2022-11-25T00:45:28.032Z,96195.25
2022-11-25T00:47:57.207Z,96197.13
2022-11-25T00:50:25.007Z,96189.13
2022-11-25T00:52:52.783Z,96192.84
2022-11-25T00:55:20.938Z,96197.66
2022-11-25T00:57:48.812Z,96188.56
2022-11-25T01:00:17.021Z,96189.59
2022-11-25T01:02:45.722Z,96181.69
2022-11-25T01:05:15.188Z,96194.69
2022-11-25T01:07:43.057Z,96192.00
2022-11-25T01:10:11.311Z,96199.19
2022-11-25T01:12:39.515Z,96191.13
2022-11-25T01:15:08.498Z,96200.75
2022-11-25T01:17:36.335Z,96206.84
2022-11-25T01:20:04.459Z,96210.25
2022-11-25T01:22:33.603Z,96202.31
2022-11-25T01:25:03.910Z,96205.81
2022-11-25T01:27:31.632Z,96199.19
2022-11-25T01:29:59.386Z,96192.75
2022-11-25T01:32:27.218Z,96197.81
2022-11-25T01:34:55.039Z,96202.84
2022-11-25T01:37:22.788Z,96200.19
2022-11-25T01:39:52.015Z,96196.22
2022-11-25T01:42:21.020Z,96199.69
2022-11-25T01:45:28.345Z,96198.13
2022-11-25T01:47:58.907Z,96199.97
2022-11-25T01:50:28.642Z,96199.97
2022-11-25T01:52:57.885Z,96195.41
2022-11-25T01:55:30.812Z,96202.63
2022-11-25T01:58:02.975Z,96201.09
2022-11-25T02:00:30.801Z,96192.78
2022-11-25T02:02:59.761Z,96203.97
2022-11-25T02:05:34.261Z,96196.00
2022-11-25T02:08:02.225Z,96206.63
2022-11-25T02:10:33.642Z,96210.63
2022-11-25T02:13:03.621Z,96211.44
2022-11-25T02:15:34.470Z,96201.09
2022-11-25T02:18:05.183Z,96206.63
2022-11-25T02:20:33.030Z,96203.94
2022-11-25T02:23:08.426Z,96206.06
2022-11-25T02:25:39.055Z,96199.38
2022-11-25T02:28:16.277Z,96201.78
2022-11-25T02:30:45.057Z,96205.00
2022-11-25T02:33:13.916Z,96202.03
2022-11-25T02:35:43.342Z,96199.34
2022-11-25T02:38:15.853Z,96206.00
2022-11-25T02:40:49.877Z,96202.25
2022-11-25T02:43:18.810Z,96198.03
2022-11-25T02:45:54.061Z,96187.94
2022-11-25T02:48:34.472Z,96186.38
2022-11-25T02:51:11.882Z,96199.19
2022-11-25T02:53:40.186Z,96203.44
2022-11-25T02:56:10.518Z,96192.22
2022-11-25T02:58:39.373Z,96194.66
2022-11-25T03:01:07.650Z,96194.94
2022-11-25T03:03:35.546Z,96193.31
2022-11-25T03:06:03.465Z,96208.78
2022-11-25T03:08:31.250Z,96196.22
2022-11-25T03:10:59.871Z,96207.66
2022-11-25T03:13:30.339Z,96202.03
2022-11-25T03:15:59.466Z,96192.19
2022-11-25T03:18:28.166Z,96191.13
2022-11-25T03:20:57.290Z,96187.97
2022-11-25T03:23:26.750Z,96192.75
2022-11-25T03:25:54.801Z,96196.44
2022-11-25T03:28:23.207Z,96196.72
2022-11-25T03:30:52.730Z,96192.16
2022-11-25T03:33:20.589Z,96191.84
2022-11-25T03:35:49.928Z,96187.28
2022-11-25T03:38:19.384Z,96191.31
2022-11-25T03:40:48.219Z,96191.59
2022-11-25T03:43:16.144Z,96190.66
2022-11-25T03:45:44.174Z,96192.53
2022-11-25T03:48:14.424Z,96188.22
2022-11-25T03:50:42.748Z,96194.63
2022-11-25T03:53:10.703Z,96190.31
2022-11-25T03:55:38.532Z,96185.00
2022-11-25T03:58:06.386Z,96178.88
2022-11-25T04:00:34.468Z,96187.09
2022-11-25T04:03:04.781Z,96183.38
2022-11-25T04:05:35.686Z,96180.16
2022-11-25T04:08:07.685Z,96188.09
2022-11-25T04:10:36.993Z,96190.72
2022-11-25T04:13:05.353Z,96184.84
2022-11-25T04:15:37.704Z,96183.22
2022-11-25T04:18:06.821Z,96176.31
2022-11-25T04:20:36.476Z,96171.28
2022-11-25T04:23:07.220Z,96173.44
2022-11-25T04:25:40.399Z,96169.22
2022-11-25T04:28:13.192Z,96167.63
2022-11-25T04:30:42.263Z,96162.53
2022-11-25T04:33:10.176Z,96161.50
2022-11-25T04:35:39.870Z,96167.09
2022-11-25T04:38:08.922Z,96171.91
2022-11-25T04:40:38.451Z,96180.47
2022-11-25T04:43:14.843Z,96176.00
2022-11-25T04:46:12.996Z,96167.75
2022-11-25T04:48:39.784Z,96176.22
2022-11-25T04:51:09.020Z,96175.22
2022-11-25T04:53:36.866Z,96188.53
2022-11-25T04:56:05.273Z,96195.16
2022-11-25T04:58:58.109Z,96192.78
2022-11-25T05:01:25.944Z,96196.78
2022-11-25T05:04:00.415Z,96198.66
2022-11-25T05:06:30.529Z,96203.41
2022-11-25T05:08:58.372Z,96200.13
2022-11-25T05:11:27.270Z,96202.78
2022-11-25T05:13:55.050Z,96206.78
2022-11-25T05:16:23.559Z,96199.03
2022-11-25T05:18:52.387Z,96200.66
2022-11-25T05:21:21.215Z,96203.06
2022-11-25T05:23:55.598Z,96212.09
2022-11-25T05:26:24.502Z,96209.44
2022-11-25T05:28:54.793Z,96204.66
2022-11-25T05:31:22.653Z,96205.22
2022-11-25T05:33:50.974Z,96208.41
2022-11-25T05:36:19.534Z,96205.25
2022-11-25T05:38:50.027Z,96207.66
2022-11-25T05:41:29.071Z,96206.59
2022-11-25T05:43:57.126Z,96214.56
2022-11-25T05:46:25.169Z,96209.31
2022-11-25T05:48:57.252Z,96211.97
2022-11-25T05:51:25.904Z,96198.44
2022-11-25T05:53:57.194Z,96197.09
2022-11-25T05:56:29.234Z,96188.88
2022-11-25T05:59:19.262Z,96191.81
2022-11-25T06:01:59.827Z,96197.19
2022-11-25T06:04:28.001Z,96203.34
2022-11-25T06:06:55.849Z,96198.81
2022-11-25T06:09:25.308Z,96204.94
2022-11-25T06:11:53.178Z,96199.84
2022-11-25T06:14:20.932Z,96211.06
2022-11-25T06:16:50.648Z,96203.34
2022-11-25T06:19:29.931Z,96204.94
2022-11-25T06:21:57.895Z,96210.25
2022-11-25T06:24:28.618Z,96202.50
2022-11-25T06:27:01.208Z,96201.50
2022-11-25T06:29:28.996Z,96199.06
2022-11-25T06:31:56.753Z,96208.66
2022-11-25T06:34:41.891Z,96211.59
2022-11-25T06:37:16.828Z,96204.66
2022-11-25T06:39:46.267Z,96211.94
2022-11-25T06:42:14.362Z,96219.06
2022-11-25T06:44:42.390Z,96219.56
2022-11-25T06:47:10.137Z,96219.34
2022-11-25T06:49:37.871Z,96219.88
2022-11-25T06:52:05.963Z,96226.56
2022-11-25T06:54:33.954Z,96226.00
2022-11-25T06:57:03.352Z,96235.06
2022-11-25T06:59:31.140Z,96231.31
2022-11-25T07:01:59.000Z,96232.13
2022-11-25T07:04:26.831Z,96227.06
2022-11-25T07:06:54.627Z,96234.56
2022-11-25T07:09:22.518Z,96238.56
2022-11-25T07:11:50.480Z,96238.56
2022-11-25T07:14:19.609Z,96229.50
2022-11-25T07:16:47.720Z,96227.41
2022-11-25T07:19:18.145Z,96228.50
2022-11-25T07:21:46.888Z,96227.97
2022-11-25T07:24:16.984Z,96225.63
2022-11-25T07:26:45.727Z,96234.97
2022-11-25T07:29:49.951Z,96236.56
2022-11-25T07:32:10.258Z,96242.19
2022-11-25T07:34:38.502Z,96239.56
2022-11-25T07:37:06.320Z,96244.63
2022-11-25T07:39:34.428Z,96240.09
2022-11-25T07:42:02.599Z,96247.03
2022-11-25T07:44:30.359Z,96248.88
2022-11-25T07:47:13.405Z,96246.78
2022-11-25T07:49:41.374Z,96258.78
2022-11-25T07:52:10.271Z,96269.78
2022-11-25T07:54:38.072Z,96272.75
2022-11-25T07:57:05.817Z,96264.75
2022-11-25T07:59:33.577Z,96278.06
2022-11-25T08:02:01.518Z,96273.53
2022-11-25T08:04:30.623Z,96277.31
2022-11-25T08:06:58.451Z,96283.75
2022-11-25T08:09:26.271Z,96293.06
2022-11-25T08:11:54.396Z,96297.09
2022-11-25T08:14:22.797Z,96293.66
2022-11-25T08:16:50.657Z,96299.00
2022-11-25T08:19:18.637Z,96298.25
2022-11-25T08:21:48.822Z,96302.81
2022-11-25T08:24:18.608Z,96305.22
2022-11-25T08:26:46.766Z,96310.84
2022-11-25T08:29:16.529Z,96305.53
2022-11-25T08:31:44.619Z,96305.56
2022-11-25T08:34:18.756Z,96301.06
2022-11-25T08:36:49.028Z,96304.03
2022-11-25T08:42:07.689Z,96311.88
2022-11-25T08:44:35.572Z,96303.38
2022-11-25T08:47:03.412Z,96305.53
2022-11-25T08:49:34.982Z,96307.69
2022-11-25T08:52:08.170Z,96303.47
2022-11-25T08:54:36.065Z,96302.66
2022-11-25T08:57:03.933Z,96306.72
2022-11-25T08:59:31.674Z,96309.13
2022-11-25T09:01:59.461Z,96305.66
2022-11-25T09:04:27.343Z,96293.97
2022-11-25T09:06:55.170Z,96297.16
2022-11-25T09:09:24.347Z,96295.56
2022-11-25T09:11:52.133Z,96310.00
2022-11-25T09:14:19.931Z,96309.50
2022-11-25T09:16:47.679Z,96314.31
2022-11-25T09:19:15.448Z,96305.50
2022-11-25T09:21:44.604Z,96315.91
2022-11-25T09:24:12.368Z,96316.97
2022-11-25T09:26:42.223Z,96311.91
2022-11-25T09:29:11.584Z,96314.84
2022-11-25T09:31:39.400Z,96315.63
2022-11-25T09:34:08.516Z,96314.03
2022-11-25T09:36:36.430Z,96322.28
2022-11-25T09:39:04.509Z,96319.34
2022-11-25T09:42:07.308Z,96316.38
2022-11-25T09:45:04.601Z,96322.81
2022-11-25T09:47:47.495Z,96325.75
2022-11-25T09:50:28.079Z,96326.00
2022-11-25T09:53:06.255Z,96320.38
2022-11-25T09:55:39.116Z,96317.16
2022-11-25T09:58:19.834Z,96325.44
2022-11-25T10:00:50.521Z,96323.78
2022-11-25T10:03:32.042Z,96325.66
2022-11-25T10:06:04.577Z,96324.59
2022-11-25T10:08:38.417Z,96330.72
2022-11-25T10:11:18.320Z,96325.31
2022-11-25T10:13:53.938Z,96326.06
2022-11-25T10:16:32.016Z,96323.78
2022-11-25T10:19:02.303Z,96326.59
2022-11-25T10:21:30.142Z,96333.47
2022-11-25T10:23:58.402Z,96336.06
2022-11-25T10:26:35.710Z,96331.22
2022-11-25T10:29:22.969Z,96329.78
2022-11-25T10:31:56.592Z,96331.56
2022-11-25T10:34:31.046Z,96317.44
2022-11-25T10:37:01.726Z,96326.41
2022-11-25T10:39:34.822Z,96328.13
2022-11-25T10:42:07.150Z,96331.22
2022-11-25T10:44:38.262Z,96321.38
2022-11-25T10:47:16.996Z,96320.47
2022-11-25T10:50:01.001Z,96314.38
2022-11-25T10:52:31.726Z,96328.50
2022-11-25T10:55:10.745Z,96333.81
2022-11-25T10:57:38.618Z,96341.03
2022-11-25T11:00:24.698Z,96339.34
2022-11-25T11:02:52.714Z,96353.06
2022-11-25T11:05:24.237Z,96345.00
2022-11-25T11:08:19.568Z,96342.31
2022-11-25T11:10:52.872Z,96348.78
2022-11-25T11:13:26.656Z,96339.84
2022-11-25T11:15:55.949Z,96340.66
2022-11-25T11:18:31.424Z,96335.28
2022-11-25T11:21:01.228Z,96347.22
2022-11-25T11:23:30.488Z,96345.97
2022-11-25T11:26:01.696Z,96350.19
2022-11-25T11:28:38.767Z,96337.97
2022-11-25T11:31:17.477Z,96354.25
2022-11-25T11:33:56.606Z,96355.06
2022-11-25T11:36:36.487Z,96350.38
2022-11-25T11:39:22.015Z,96341.09
2022-11-25T11:41:56.430Z,96352.66
2022-11-25T11:44:37.422Z,96338.69
2022-11-25T11:47:21.751Z,96331.94
2022-11-25T11:50:02.993Z,96336.81
2022-11-25T11:52:43.995Z,96340.31
2022-11-25T11:55:27.219Z,96341.03
2022-11-25T11:58:07.645Z,96343.94
2022-11-25T12:00:46.122Z,96340.72
2022-11-25T12:03:19.701Z,96333.25
2022-11-25T12:05:54.511Z,96336.22
2022-11-25T12:08:31.537Z,96337.22
2022-11-25T12:11:11.343Z,96326.09
2022-11-25T12:13:46.690Z,96329.22
2022-11-25T12:16:21.763Z,96331.72
2022-11-25T12:18:57.595Z,96323.56
2022-11-25T12:21:42.867Z,96326.91
2022-11-25T12:24:19.587Z,96331.81
2022-11-25T12:26:53.210Z,96332.31
2022-11-25T12:29:29.274Z,96328.94
2022-11-25T12:32:03.852Z,96332.13
2022-11-25T12:34:41.069Z,96330.16
2022-11-25T12:37:15.220Z,96330.59
2022-11-25T12:39:49.624Z,96325.91
2022-11-25T12:42:23.995Z,96328.59
2022-11-25T12:45:00.262Z,96333.38
2022-11-25T12:47:28.486Z,96334.47
2022-11-25T12:49:58.085Z,96341.47
2022-11-25T12:52:43.617Z,96337.97
2022-11-25T12:55:16.301Z,96342.88
2022-11-25T12:58:15.969Z,96339.19
2022-11-25T13:01:11.126Z,96350.03
2022-11-25T13:04:06.312Z,96358.47
2022-11-25T13:06:55.382Z,96351.09
2022-11-25T13:09:45.754Z,96351.97
